sensor_id;sensor_type;location;lat;lon;timestamp;pressure;altitude;pressure_sealevel;temperature;humidity
48089;BME280;33867;50.314;7.802;2023-02-14T00:02:22;102427.50;;;-0.07;nan
48089;BME280;33867;50.314;7.802;2023-02-14T00:05:41;102423.09;;;-0.07;nan
48089;BME280;33867;50.314;7.802;2023-02-14T00:09:01;102418.06;;;-0.22;nan
48089;BME280;33867;50.314;7.802;2023-02-14T00:12:20;102419.06;;;-0.31;nan
48089;BME280;33867;50.314;7.802;2023-02-14T00:15:39;102417.50;;;-0.44;nan
48089;BME280;33867;50.314;7.802;2023-02-14T00:18:58;102405.16;;;-0.45;nan
48089;BME280;33867;50.314;7.802;2023-02-14T00:22:23;102415.56;;;-0.33;nan
48089;BME280;33867;50.314;7.802;2023-02-14T00:25:42;102408.72;;;-0.46;nan
48089;BME280;33867;50.314;7.802;2023-02-14T00:29:01;102399.91;;;-0.48;nan
48089;BME280;33867;50.314;7.802;2023-02-14T00:32:20;102401.00;;;-0.63;nan
48089;BME280;33867;50.314;7.802;2023-02-14T00:35:39;102403.56;;;-0.55;nan
48089;BME280;33867;50.314;7.802;2023-02-14T00:38:58;102405.41;;;-0.62;nan
48089;BME280;33867;50.314;7.802;2023-02-14T00:42:17;102395.69;;;-0.61;nan
48089;BME280;33867;50.314;7.802;2023-02-14T00:45:38;102399.38;;;-0.70;nan
48089;BME280;33867;50.314;7.802;2023-02-14T00:48:57;102402.78;;;-0.63;nan
48089;BME280;33867;50.314;7.802;2023-02-14T00:52:16;102402.72;;;-0.60;nan
48089;BME280;33867;50.314;7.802;2023-02-14T00:55:35;102396.59;;;-0.62;nan
48089;BME280;33867;50.314;7.802;2023-02-14T00:58:54;102394.06;;;-0.71;nan
48089;BME280;33867;50.314;7.802;2023-02-14T01:02:13;102393.16;;;-0.67;nan
48089;BME280;33867;50.314;7.802;2023-02-14T01:05:32;102401.25;;;-0.79;nan
48089;BME280;33867;50.314;7.802;2023-02-14T01:08:51;102398.50;;;-0.73;nan
48089;BME280;33867;50.314;7.802;2023-02-14T01:12:11;102401.09;;;-0.67;nan
48089;BME280;33867;50.314;7.802;2023-02-14T01:15:30;102403.88;;;-0.78;nan
48089;BME280;33867;50.314;7.802;2023-02-14T01:18:51;102404.84;;;-0.82;nan
48089;BME280;33867;50.314;7.802;2023-02-14T01:22:10;102411.00;;;-0.81;nan
48089;BME280;33867;50.314;7.802;2023-02-14T01:25:29;102412.75;;;-0.80;nan
48089;BME280;33867;50.314;7.802;2023-02-14T01:28:51;102411.78;;;-0.76;nan
48089;BME280;33867;50.314;7.802;2023-02-14T01:32:10;102412.69;;;-0.77;nan
48089;BME280;33867;50.314;7.802;2023-02-14T01:35:29;102403.84;;;-0.76;nan
48089;BME280;33867;50.314;7.802;2023-02-14T01:38:53;102411.94;;;-0.87;nan
48089;BME280;33867;50.314;7.802;2023-02-14T01:42:15;102411.09;;;-0.89;nan
48089;BME280;33867;50.314;7.802;2023-02-14T01:45:33;102404.06;;;-0.92;nan
48089;BME280;33867;50.314;7.802;2023-02-14T01:49:01;102408.56;;;-1.00;nan
48089;BME280;33867;50.314;7.802;2023-02-14T01:52:28;102404.25;;;-1.07;nan
48089;BME280;33867;50.314;7.802;2023-02-14T01:55:57;102405.00;;;-0.94;nan
48089;BME280;33867;50.314;7.802;2023-02-14T01:59:21;102413.28;;;-1.23;nan
48089;BME280;33867;50.314;7.802;2023-02-14T02:02:42;102404.41;;;-1.19;nan
48089;BME280;33867;50.314;7.802;2023-02-14T02:06:18;102405.31;;;-1.20;nan
48089;BME280;33867;50.314;7.802;2023-02-14T02:09:46;102397.25;;;-1.11;nan
48089;BME280;33867;50.314;7.802;2023-02-14T02:13:12;102401.78;;;-1.17;nan
48089;BME280;33867;50.314;7.802;2023-02-14T02:20:33;102390.28;;;-1.15;nan
48089;BME280;33867;50.314;7.802;2023-02-14T02:24:09;102388.53;;;-1.16;nan
48089;BME280;33867;50.314;7.802;2023-02-14T02:34:55;102385.16;;;-1.27;nan
48089;BME280;33867;50.314;7.802;2023-02-14T02:38:27;102384.31;;;-1.32;nan
48089;BME280;33867;50.314;7.802;2023-02-14T02:48:53;102372.88;;;-1.34;nan
48089;BME280;33867;50.314;7.802;2023-02-14T02:52:28;102379.00;;;-1.29;nan
48089;BME280;33867;50.314;7.802;2023-02-14T02:56:14;102378.88;;;-1.20;nan
48089;BME280;33867;50.314;7.802;2023-02-14T02:59:55;102384.88;;;-1.06;nan
48089;BME280;33867;50.314;7.802;2023-02-14T03:03:15;102379.44;;;-0.94;nan
48089;BME280;33867;50.314;7.802;2023-02-14T03:06:54;102384.63;;;-0.88;nan
48089;BME280;33867;50.314;7.802;2023-02-14T03:10:15;102384.53;;;-0.81;nan
48089;BME280;33867;50.314;7.802;2023-02-14T03:13:53;102372.03;;;-0.72;nan
48089;BME280;33867;50.314;7.802;2023-02-14T03:17:42;102380.94;;;-0.77;nan
48089;BME280;33867;50.314;7.802;2023-02-14T03:21:27;102372.06;;;-0.73;nan
48089;BME280;33867;50.314;7.802;2023-02-14T03:24:55;102374.66;;;-0.69;nan
48089;BME280;33867;50.314;7.802;2023-02-14T03:28:37;102377.34;;;-0.73;nan
48089;BME280;33867;50.314;7.802;2023-02-14T03:32:05;102366.69;;;-0.67;nan
48089;BME280;33867;50.314;7.802;2023-02-14T03:38:54;102385.94;;;-0.56;nan
48089;BME280;33867;50.314;7.802;2023-02-14T03:42:22;102386.69;;;-0.46;nan
48089;BME280;33867;50.314;7.802;2023-02-14T03:45:57;102383.06;;;-0.42;nan
48089;BME280;33867;50.314;7.802;2023-02-14T03:49:23;102381.25;;;-0.39;nan
48089;BME280;33867;50.314;7.802;2023-02-14T03:52:45;102380.25;;;-0.32;nan
48089;BME280;33867;50.314;7.802;2023-02-14T03:59:40;102380.25;;;-0.32;nan
48089;BME280;33867;50.314;7.802;2023-02-14T04:03:02;102384.84;;;-0.43;nan
48089;BME280;33867;50.314;7.802;2023-02-14T04:06:24;102375.03;;;-0.38;nan
48089;BME280;33867;50.314;7.802;2023-02-14T04:09:43;102374.06;;;-0.31;nan
48089;BME280;33867;50.314;7.802;2023-02-14T04:13:03;102376.72;;;-0.31;nan
48089;BME280;33867;50.314;7.802;2023-02-14T04:16:21;102379.25;;;-0.26;nan
48089;BME280;33867;50.314;7.802;2023-02-14T04:19:40;102376.59;;;-0.24;nan
48089;BME280;33867;50.314;7.802;2023-02-14T04:23:00;102380.13;;;-0.22;nan
48089;BME280;33867;50.314;7.802;2023-02-14T04:26:19;102379.41;;;-0.92;nan
48089;BME280;33867;50.314;7.802;2023-02-14T04:29:47;102389.75;;;-0.75;nan
48089;BME280;33867;50.314;7.802;2023-02-14T04:33:06;102390.63;;;-0.76;nan
48089;BME280;33867;50.314;7.802;2023-02-14T04:36:28;102385.13;;;-0.61;nan
48089;BME280;33867;50.314;7.802;2023-02-14T04:39:47;102374.31;;;-0.46;nan
48089;BME280;33867;50.314;7.802;2023-02-14T04:43:06;102380.94;;;-0.77;nan
48089;BME280;33867;50.314;7.802;2023-02-14T04:46:26;102372.53;;;-0.45;nan
48089;BME280;33867;50.314;7.802;2023-02-14T04:49:45;102379.25;;;-0.81;nan
48089;BME280;33867;50.314;7.802;2023-02-14T04:53:04;102368.56;;;-0.75;nan
48089;BME280;33867;50.314;7.802;2023-02-14T04:56:23;102378.19;;;-0.68;nan
48089;BME280;33867;50.314;7.802;2023-02-14T04:59:44;102365.63;;;-0.55;nan
48089;BME280;33867;50.314;7.802;2023-02-14T05:03:03;102368.38;;;-0.62;nan
48089;BME280;33867;50.314;7.802;2023-02-14T05:06:22;102371.91;;;-0.63;nan
48089;BME280;33867;50.314;7.802;2023-02-14T05:09:41;102363.94;;;-0.61;nan
48089;BME280;33867;50.314;7.802;2023-02-14T05:13:01;102364.25;;;-0.79;nan
48089;BME280;33867;50.314;7.802;2023-02-14T05:16:20;102369.56;;;-0.82;nan
48089;BME280;33867;50.314;7.802;2023-02-14T05:19:39;102371.41;;;-0.88;nan
48089;BME280;33867;50.314;7.802;2023-02-14T05:22:58;102375.28;;;-1.14;nan
48089;BME280;33867;50.314;7.802;2023-02-14T05:26:21;102366.38;;;-1.07;nan
48089;BME280;33867;50.314;7.802;2023-02-14T05:29:40;102373.31;;;-0.99;nan
48089;BME280;33867;50.314;7.802;2023-02-14T05:32:59;102380.16;;;-0.82;nan
48089;BME280;33867;50.314;7.802;2023-02-14T05:36:18;102376.19;;;-0.54;nan
48089;BME280;33867;50.314;7.802;2023-02-14T05:39:37;102367.94;;;-0.36;nan
48089;BME280;33867;50.314;7.802;2023-02-14T05:42:57;102360.78;;;-0.27;nan
48089;BME280;33867;50.314;7.802;2023-02-14T05:46:16;102359.94;;;-0.30;nan
48089;BME280;33867;50.314;7.802;2023-02-14T05:49:35;102361.59;;;-0.22;nan
48089;BME280;33867;50.314;7.802;2023-02-14T05:52:55;102367.00;;;-0.30;nan
48089;BME280;33867;50.314;7.802;2023-02-14T05:56:14;102368.72;;;-0.27;nan
48089;BME280;33867;50.314;7.802;2023-02-14T05:59:33;102373.09;;;-0.26;nan
48089;BME280;33867;50.314;7.802;2023-02-14T06:02:52;102372.91;;;-0.14;nan
48089;BME280;33867;50.314;7.802;2023-02-14T06:06:11;102375.78;;;-0.28;nan
48089;BME280;33867;50.314;7.802;2023-02-14T06:09:30;102371.47;;;-0.34;nan
48089;BME280;33867;50.314;7.802;2023-02-14T06:12:51;102373.06;;;-0.23;nan
48089;BME280;33867;50.314;7.802;2023-02-14T06:16:10;102378.22;;;-0.16;nan
48089;BME280;33867;50.314;7.802;2023-02-14T06:19:30;102374.44;;;-0.01;nan
48089;BME280;33867;50.314;7.802;2023-02-14T06:22:49;102366.56;;;-0.06;nan
48089;BME280;33867;50.314;7.802;2023-02-14T06:26:08;102371.94;;;-0.09;nan
48089;BME280;33867;50.314;7.802;2023-02-14T06:29:28;102374.75;;;-0.19;nan
48089;BME280;33867;50.314;7.802;2023-02-14T06:32:47;102375.53;;;-0.14;nan
48089;BME280;33867;50.314;7.802;2023-02-14T06:36:06;102370.94;;;-0.03;nan
48089;BME280;33867;50.314;7.802;2023-02-14T06:39:25;102373.63;;;-0.05;nan
48089;BME280;33867;50.314;7.802;2023-02-14T06:42:44;102369.31;;;-0.10;nan
48089;BME280;33867;50.314;7.802;2023-02-14T06:46:03;102378.31;;;-0.20;nan
48089;BME280;33867;50.314;7.802;2023-02-14T06:49:22;102385.16;;;-0.07;nan
48089;BME280;33867;50.314;7.802;2023-02-14T06:52:42;102377.72;;;0.12;nan
48089;BME280;33867;50.314;7.802;2023-02-14T06:56:02;102370.13;;;-0.07;nan
48089;BME280;33867;50.314;7.802;2023-02-14T06:59:21;102377.06;;;-0.01;nan
48089;BME280;33867;50.314;7.802;2023-02-14T07:02:40;102378.16;;;-0.11;nan
48089;BME280;33867;50.314;7.802;2023-02-14T07:05:59;102385.00;;;0.02;nan
48089;BME280;33867;50.314;7.802;2023-02-14T07:09:18;102387.50;;;0.08;nan
48089;BME280;33867;50.314;7.802;2023-02-14T07:12:39;102380.53;;;0.04;nan
48089;BME280;33867;50.314;7.802;2023-02-14T07:15:58;102384.19;;;-0.03;nan
48089;BME280;33867;50.314;7.802;2023-02-14T07:19:17;102377.97;;;-0.02;nan
48089;BME280;33867;50.314;7.802;2023-02-14T07:22:37;102381.94;;;-0.27;nan
48089;BME280;33867;50.314;7.802;2023-02-14T07:25:56;102369.34;;;-0.13;nan
48089;BME280;33867;50.314;7.802;2023-02-14T07:29:16;102369.03;;;0.05;nan
48089;BME280;33867;50.314;7.802;2023-02-14T07:32:38;102369.88;;;0.07;nan
48089;BME280;33867;50.314;7.802;2023-02-14T07:35:57;102374.34;;;0.05;nan
48089;BME280;33867;50.314;7.802;2023-02-14T07:39:16;102369.75;;;0.15;nan
48089;BME280;33867;50.314;7.802;2023-02-14T07:42:36;102370.34;;;0.31;nan
48089;BME280;33867;50.314;7.802;2023-02-14T07:45:54;102376.41;;;0.37;nan
48089;BME280;33867;50.314;7.802;2023-02-14T07:49:14;102372.91;;;0.34;nan
48089;BME280;33867;50.314;7.802;2023-02-14T07:52:33;102373.56;;;0.48;nan
48089;BME280;33867;50.314;7.802;2023-02-14T07:55:52;102380.69;;;0.43;nan
48089;BME280;33867;50.314;7.802;2023-02-14T07:59:11;102386.13;;;0.37;nan
48089;BME280;33867;50.314;7.802;2023-02-14T08:02:31;102378.81;;;0.49;nan
48089;BME280;33867;50.314;7.802;2023-02-14T08:05:49;102376.16;;;0.49;nan
48089;BME280;33867;50.314;7.802;2023-02-14T08:09:14;102383.44;;;0.81;nan
48089;BME280;33867;50.314;7.802;2023-02-14T08:12:42;102377.34;;;0.78;nan
48089;BME280;33867;50.314;7.802;2023-02-14T08:16:19;102371.91;;;0.85;nan
48089;BME280;33867;50.314;7.802;2023-02-14T08:19:39;102372.84;;;0.81;nan
48089;BME280;33867;50.314;7.802;2023-02-14T08:22:58;102373.06;;;1.12;nan
48089;BME280;33867;50.314;7.802;2023-02-14T08:26:16;102370.06;;;0.87;nan
48089;BME280;33867;50.314;7.802;2023-02-14T08:29:36;102376.47;;;1.19;nan
48089;BME280;33867;50.314;7.802;2023-02-14T08:32:55;102373.41;;;1.36;nan
48089;BME280;33867;50.314;7.802;2023-02-14T08:36:14;102375.03;;;1.41;nan
48089;BME280;33867;50.314;7.802;2023-02-14T08:39:35;102377.69;;;1.41;nan
48089;BME280;33867;50.314;7.802;2023-02-14T08:42:54;102375.69;;;1.51;nan
48089;BME280;33867;50.314;7.802;2023-02-14T08:46:13;102378.16;;;1.60;nan
48089;BME280;33867;50.314;7.802;2023-02-14T08:49:34;102372.66;;;1.68;nan
48089;BME280;33867;50.314;7.802;2023-02-14T08:52:53;102370.13;;;1.62;nan
48089;BME280;33867;50.314;7.802;2023-02-14T08:56:13;102369.31;;;1.60;nan
48089;BME280;33867;50.314;7.802;2023-02-14T08:59:32;102372.53;;;1.72;nan
48089;BME280;33867;50.314;7.802;2023-02-14T09:02:52;102366.72;;;1.92;nan
48089;BME280;33867;50.314;7.802;2023-02-14T09:06:14;102374.56;;;1.97;nan
48089;BME280;33867;50.314;7.802;2023-02-14T09:09:34;102370.31;;;1.91;nan
48089;BME280;33867;50.314;7.802;2023-02-14T09:12:54;102377.59;;;1.83;nan
48089;BME280;33867;50.314;7.802;2023-02-14T09:16:14;102372.75;;;1.99;nan
48089;BME280;33867;50.314;7.802;2023-02-14T09:19:37;102378.84;;;2.04;nan
48089;BME280;33867;50.314;7.802;2023-02-14T09:22:56;102384.00;;;2.09;nan
48089;BME280;33867;50.314;7.802;2023-02-14T09:26:16;102377.47;;;2.22;nan
48089;BME280;33867;50.314;7.802;2023-02-14T09:29:36;102386.41;;;2.19;nan
48089;BME280;33867;50.314;7.802;2023-02-14T09:32:55;102381.47;;;2.37;nan
48089;BME280;33867;50.314;7.802;2023-02-14T09:36:13;102386.31;;;2.22;nan
48089;BME280;33867;50.314;7.802;2023-02-14T09:39:39;102395.16;;;2.23;nan
48089;BME280;33867;50.314;7.802;2023-02-14T09:43:02;102386.69;;;2.41;nan
48089;BME280;33867;50.314;7.802;2023-02-14T09:46:27;102382.16;;;2.45;nan
48089;BME280;33867;50.314;7.802;2023-02-14T09:49:47;102391.06;;;2.75;nan
48089;BME280;33867;50.314;7.802;2023-02-14T10:03:50;102371.16;;;3.17;nan
48089;BME280;33867;50.314;7.802;2023-02-14T10:11:08;102366.38;;;2.70;nan
48089;BME280;33867;50.314;7.802;2023-02-14T10:14:31;102361.94;;;2.70;nan
48089;BME280;33867;50.314;7.802;2023-02-14T10:17:55;102363.88;;;2.94;nan
48089;BME280;33867;50.314;7.802;2023-02-14T10:21:57;102368.22;;;2.68;nan
48089;BME280;33867;50.314;7.802;2023-02-14T10:25:25;102363.44;;;3.38;nan
48089;BME280;33867;50.314;7.802;2023-02-14T10:28:48;102363.81;;;3.53;nan
48089;BME280;33867;50.314;7.802;2023-02-14T10:32:13;102361.34;;;3.19;nan
48089;BME280;33867;50.314;7.802;2023-02-14T10:43:51;102355.06;;;3.50;nan
48089;BME280;33867;50.314;7.802;2023-02-14T10:54:39;102345.25;;;3.24;nan
48089;BME280;33867;50.314;7.802;2023-02-14T10:58:02;102338.94;;;3.27;nan
48089;BME280;33867;50.314;7.802;2023-02-14T11:01:22;102334.22;;;3.07;nan
48089;BME280;33867;50.314;7.802;2023-02-14T11:04:42;102334.91;;;3.69;nan
48089;BME280;33867;50.314;7.802;2023-02-14T11:11:40;102319.16;;;4.13;nan
48089;BME280;33867;50.314;7.802;2023-02-14T11:15:22;102318.84;;;4.22;nan
48089;BME280;33867;50.314;7.802;2023-02-14T11:18:42;102305.72;;;4.41;nan
48089;BME280;33867;50.314;7.802;2023-02-14T11:22:01;102316.03;;;4.25;nan
48089;BME280;33867;50.314;7.802;2023-02-14T11:25:28;102314.41;;;4.46;nan
48089;BME280;33867;50.314;7.802;2023-02-14T11:28:55;102308.78;;;4.77;nan
48089;BME280;33867;50.314;7.802;2023-02-14T11:32:22;102302.06;;;4.90;nan
48089;BME280;33867;50.314;7.802;2023-02-14T11:35:49;102301.88;;;4.48;nan
48089;BME280;33867;50.314;7.802;2023-02-14T11:42:41;102291.34;;;5.14;nan
48089;BME280;33867;50.314;7.802;2023-02-14T11:49:33;102284.25;;;5.13;nan
48089;BME280;33867;50.314;7.802;2023-02-14T11:52:55;102273.72;;;4.64;nan
48089;BME280;33867;50.314;7.802;2023-02-14T11:56:18;102268.03;;;4.27;nan
48089;BME280;33867;50.314;7.802;2023-02-14T11:59:55;102276.59;;;4.58;nan
48089;BME280;33867;50.314;7.802;2023-02-14T12:03:19;102274.13;;;4.99;nan
48089;BME280;33867;50.314;7.802;2023-02-14T12:06:38;102256.84;;;5.29;nan
48089;BME280;33867;50.314;7.802;2023-02-14T12:13:35;102250.31;;;4.71;nan
48089;BME280;33867;50.314;7.802;2023-02-14T12:17:26;102246.84;;;4.46;nan
48089;BME280;33867;50.314;7.802;2023-02-14T12:24:34;102234.50;;;4.66;nan
48089;BME280;33867;50.314;7.802;2023-02-14T12:28:02;102228.16;;;4.69;nan
48089;BME280;33867;50.314;7.802;2023-02-14T12:31:23;102219.00;;;4.98;nan
48089;BME280;33867;50.314;7.802;2023-02-14T12:34:43;102229.69;;;4.98;nan
48089;BME280;33867;50.314;7.802;2023-02-14T12:41:57;102213.91;;;4.92;nan
48089;BME280;33867;50.314;7.802;2023-02-14T13:00:50;102187.59;;;4.83;nan
48089;BME280;33867;50.314;7.802;2023-02-14T13:07:58;102184.31;;;5.18;nan
48089;BME280;33867;50.314;7.802;2023-02-14T13:11:42;102179.56;;;5.05;nan
48089;BME280;33867;50.314;7.802;2023-02-14T13:15:15;102172.28;;;5.50;nan
48089;BME280;33867;50.314;7.802;2023-02-14T13:19:02;102171.00;;;5.39;nan
48089;BME280;33867;50.314;7.802;2023-02-14T13:22:24;102168.25;;;5.40;nan
48089;BME280;33867;50.314;7.802;2023-02-14T13:25:50;102163.84;;;5.39;nan
48089;BME280;33867;50.314;7.802;2023-02-14T13:29:13;102152.09;;;5.43;nan
48089;BME280;33867;50.314;7.802;2023-02-14T13:32:39;102154.25;;;5.35;nan
48089;BME280;33867;50.314;7.802;2023-02-14T13:36:01;102152.91;;;5.45;nan
48089;BME280;33867;50.314;7.802;2023-02-14T13:42:52;102128.19;;;5.61;nan
48089;BME280;33867;50.314;7.802;2023-02-14T13:50:04;102134.22;;;5.45;nan
48089;BME280;33867;50.314;7.802;2023-02-14T13:53:36;102127.53;;;5.35;nan
48089;BME280;33867;50.314;7.802;2023-02-14T13:56:58;102117.63;;;5.17;nan
48089;BME280;33867;50.314;7.802;2023-02-14T14:10:48;102126.41;;;4.56;nan
48089;BME280;33867;50.314;7.802;2023-02-14T14:17:47;102110.94;;;4.86;nan
48089;BME280;33867;50.314;7.802;2023-02-14T14:21:22;102113.63;;;4.86;nan
48089;BME280;33867;50.314;7.802;2023-02-14T14:24:57;102114.72;;;4.59;nan
48089;BME280;33867;50.314;7.802;2023-02-14T14:28:20;102107.09;;;4.50;nan
48089;BME280;33867;50.314;7.802;2023-02-14T14:31:46;102103.56;;;4.49;nan
48089;BME280;33867;50.314;7.802;2023-02-14T14:38:47;102100.72;;;4.76;nan
48089;BME280;33867;50.314;7.802;2023-02-14T14:42:14;102104.25;;;4.32;nan
48089;BME280;33867;50.314;7.802;2023-02-14T14:45:33;102103.13;;;4.60;nan
48089;BME280;33867;50.314;7.802;2023-02-14T14:48:54;102091.84;;;4.53;nan
48089;BME280;33867;50.314;7.802;2023-02-14T14:52:27;102091.22;;;4.68;nan
48089;BME280;33867;50.314;7.802;2023-02-14T14:55:47;102099.41;;;4.20;nan
48089;BME280;33867;50.314;7.802;2023-02-14T14:59:29;102076.78;;;4.52;nan
48089;BME280;33867;50.314;7.802;2023-02-14T15:03:13;102082.00;;;4.55;nan
48089;BME280;33867;50.314;7.802;2023-02-14T15:06:37;102082.44;;;3.99;nan
48089;BME280;33867;50.314;7.802;2023-02-14T15:09:56;102074.41;;;4.23;nan
48089;BME280;33867;50.314;7.802;2023-02-14T15:13:15;102072.91;;;4.37;nan
48089;BME280;33867;50.314;7.802;2023-02-14T15:16:57;102070.94;;;4.43;nan
48089;BME280;33867;50.314;7.802;2023-02-14T15:20:19;102067.59;;;4.37;nan
48089;BME280;33867;50.314;7.802;2023-02-14T15:23:41;102075.53;;;4.17;nan
48089;BME280;33867;50.314;7.802;2023-02-14T15:27:02;102076.03;;;4.05;nan
48089;BME280;33867;50.314;7.802;2023-02-14T15:30:39;102069.44;;;4.14;nan
48089;BME280;33867;50.314;7.802;2023-02-14T15:34:03;102068.81;;;4.07;nan
48089;BME280;33867;50.314;7.802;2023-02-14T15:37:23;102070.66;;;3.83;nan
48089;BME280;33867;50.314;7.802;2023-02-14T15:40:43;102068.19;;;4.00;nan
48089;BME280;33867;50.314;7.802;2023-02-14T15:44:02;102068.69;;;4.10;nan
48089;BME280;33867;50.314;7.802;2023-02-14T15:47:22;102067.38;;;3.98;nan
48089;BME280;33867;50.314;7.802;2023-02-14T15:50:47;102063.50;;;3.60;nan
48089;BME280;33867;50.314;7.802;2023-02-14T15:54:43;102066.75;;;3.45;nan
48089;BME280;33867;50.314;7.802;2023-02-14T15:58:05;102067.91;;;3.61;nan
48089;BME280;33867;50.314;7.802;2023-02-14T16:01:33;102069.59;;;3.87;nan
48089;BME280;33867;50.314;7.802;2023-02-14T16:04:53;102063.97;;;3.71;nan
48089;BME280;33867;50.314;7.802;2023-02-14T16:11:53;102068.34;;;3.26;nan
48089;BME280;33867;50.314;7.802;2023-02-14T16:15:21;102063.69;;;3.32;nan
48089;BME280;33867;50.314;7.802;2023-02-14T16:18:46;102056.91;;;3.47;nan
48089;BME280;33867;50.314;7.802;2023-02-14T16:22:09;102058.78;;;3.45;nan
48089;BME280;33867;50.314;7.802;2023-02-14T16:25:28;102059.69;;;3.44;nan
48089;BME280;33867;50.314;7.802;2023-02-14T16:28:48;102064.97;;;3.45;nan
48089;BME280;33867;50.314;7.802;2023-02-14T16:32:10;102063.97;;;3.48;nan
48089;BME280;33867;50.314;7.802;2023-02-14T16:35:29;102062.25;;;3.47;nan
48089;BME280;33867;50.314;7.802;2023-02-14T16:38:49;102066.75;;;3.45;nan
48089;BME280;33867;50.314;7.802;2023-02-14T16:42:13;102074.97;;;3.14;nan
48089;BME280;33867;50.314;7.802;2023-02-14T16:45:33;102072.03;;;3.21;nan
48089;BME280;33867;50.314;7.802;2023-02-14T16:48:53;102072.50;;;3.08;nan
48089;BME280;33867;50.314;7.802;2023-02-14T16:52:24;102065.31;;;3.11;nan
48089;BME280;33867;50.314;7.802;2023-02-14T16:55:44;102071.31;;;2.91;nan
48089;BME280;33867;50.314;7.802;2023-02-14T16:59:04;102079.97;;;2.98;nan
48089;BME280;33867;50.314;7.802;2023-02-14T17:02:23;102086.41;;;2.91;nan
48089;BME280;33867;50.314;7.802;2023-02-14T17:05:46;102091.56;;;2.96;nan
48089;BME280;33867;50.314;7.802;2023-02-14T17:09:08;102085.56;;;3.15;nan
48089;BME280;33867;50.314;7.802;2023-02-14T17:12:33;102088.63;;;3.03;nan
48089;BME280;33867;50.314;7.802;2023-02-14T17:15:53;102091.81;;;3.14;nan
48089;BME280;33867;50.314;7.802;2023-02-14T17:19:12;102091.91;;;3.11;nan
48089;BME280;33867;50.314;7.802;2023-02-14T17:22:32;102097.16;;;2.88;nan
48089;BME280;33867;50.314;7.802;2023-02-14T17:25:52;102093.97;;;3.03;nan
48089;BME280;33867;50.314;7.802;2023-02-14T17:29:12;102102.19;;;2.97;nan
48089;BME280;33867;50.314;7.802;2023-02-14T17:32:31;102098.16;;;2.84;nan
48089;BME280;33867;50.314;7.802;2023-02-14T17:35:50;102097.50;;;2.77;nan
48089;BME280;33867;50.314;7.802;2023-02-14T17:39:09;102099.19;;;2.80;nan
48089;BME280;33867;50.314;7.802;2023-02-14T17:42:31;102100.91;;;3.07;nan
48089;BME280;33867;50.314;7.802;2023-02-14T17:45:50;102093.97;;;3.03;nan
48089;BME280;33867;50.314;7.802;2023-02-14T17:49:09;102098.97;;;3.12;nan
48089;BME280;33867;50.314;7.802;2023-02-14T17:52:29;102092.13;;;3.05;nan
48089;BME280;33867;50.314;7.802;2023-02-14T17:55:47;102100.47;;;2.94;nan
48089;BME280;33867;50.314;7.802;2023-02-14T17:59:07;102091.66;;;2.92;nan
48089;BME280;33867;50.314;7.802;2023-02-14T18:02:26;102091.53;;;2.97;nan
48089;BME280;33867;50.314;7.802;2023-02-14T18:05:46;102084.56;;;2.93;nan
48089;BME280;33867;50.314;7.802;2023-02-14T18:09:06;102073.91;;;2.93;nan
48089;BME280;33867;50.314;7.802;2023-02-14T18:12:25;102083.63;;;2.94;nan
48089;BME280;33867;50.314;7.802;2023-02-14T18:15:44;102079.22;;;2.93;nan
48089;BME280;33867;50.314;7.802;2023-02-14T18:19:05;102079.84;;;3.01;nan
48089;BME280;33867;50.314;7.802;2023-02-14T18:22:24;102084.00;;;3.10;nan
48089;BME280;33867;50.314;7.802;2023-02-14T18:25:53;102085.94;;;2.78;nan
48089;BME280;33867;50.314;7.802;2023-02-14T18:29:13;102081.88;;;2.93;nan
48089;BME280;33867;50.314;7.802;2023-02-14T18:32:32;102076.41;;;2.73;nan
48089;BME280;33867;50.314;7.802;2023-02-14T18:35:51;102082.13;;;2.87;nan
48089;BME280;33867;50.314;7.802;2023-02-14T18:39:10;102064.31;;;2.89;nan
48089;BME280;33867;50.314;7.802;2023-02-14T18:42:29;102066.00;;;2.65;nan
48089;BME280;33867;50.314;7.802;2023-02-14T18:45:48;102061.25;;;2.75;nan
48089;BME280;33867;50.314;7.802;2023-02-14T18:49:07;102053.97;;;2.80;nan
48089;BME280;33867;50.314;7.802;2023-02-14T18:52:27;102049.53;;;3.05;nan
48089;BME280;33867;50.314;7.802;2023-02-14T18:55:46;102050.34;;;3.07;nan
48089;BME280;33867;50.314;7.802;2023-02-14T18:59:08;102052.63;;;2.93;nan
48089;BME280;33867;50.314;7.802;2023-02-14T19:02:27;102050.41;;;3.06;nan
48089;BME280;33867;50.314;7.802;2023-02-14T19:05:46;102057.50;;;2.80;nan
48089;BME280;33867;50.314;7.802;2023-02-14T19:09:13;102057.88;;;2.96;nan
48089;BME280;33867;50.314;7.802;2023-02-14T19:12:33;102056.72;;;3.03;nan
48089;BME280;33867;50.314;7.802;2023-02-14T19:15:53;102054.41;;;2.68;nan
48089;BME280;33867;50.314;7.802;2023-02-14T19:19:12;102054.50;;;2.64;nan
48089;BME280;33867;50.314;7.802;2023-02-14T19:22:36;102056.66;;;2.53;nan
48089;BME280;33867;50.314;7.802;2023-02-14T19:25:54;102053.00;;;2.56;nan
48089;BME280;33867;50.314;7.802;2023-02-14T19:29:15;102056.75;;;2.77;nan
48089;BME280;33867;50.314;7.802;2023-02-14T19:32:35;102053.78;;;2.59;nan
48089;BME280;33867;50.314;7.802;2023-02-14T19:36:01;102051.78;;;2.66;nan
48089;BME280;33867;50.314;7.802;2023-02-14T19:39:21;102043.63;;;2.71;nan
48089;BME280;33867;50.314;7.802;2023-02-14T19:42:40;102048.31;;;2.38;nan
48089;BME280;33867;50.314;7.802;2023-02-14T19:46:02;102034.16;;;2.63;nan
48089;BME280;33867;50.314;7.802;2023-02-14T19:49:21;102037.09;;;2.81;nan
48089;BME280;33867;50.314;7.802;2023-02-14T19:52:40;102028.03;;;2.86;nan
48089;BME280;33867;50.314;7.802;2023-02-14T19:56:01;102023.28;;;2.96;nan
48089;BME280;33867;50.314;7.802;2023-02-14T19:59:20;102021.50;;;2.95;nan
48089;BME280;33867;50.314;7.802;2023-02-14T20:02:40;102016.72;;;2.80;nan
48089;BME280;33867;50.314;7.802;2023-02-14T20:06:06;102014.38;;;2.97;nan
48089;BME280;33867;50.314;7.802;2023-02-14T20:09:26;102020.84;;;2.63;nan
48089;BME280;33867;50.314;7.802;2023-02-14T20:12:45;102022.31;;;2.72;nan
48089;BME280;33867;50.314;7.802;2023-02-14T20:16:04;102022.03;;;2.55;nan
48089;BME280;33867;50.314;7.802;2023-02-14T20:19:25;102009.72;;;2.52;nan
48089;BME280;33867;50.314;7.802;2023-02-14T20:22:46;102011.91;;;2.66;nan